Time;durP1;ratioP1;P1;durP2;ratioP2;P2;SDS_P1;SDS_P2;PMS_P1;PMS_P2;Temp;Humidity;BMP_temperature;BMP_pressure;BME280_temperature;BME280_humidity;BME280_pressure;Samples;Min_cycle;Max_cycle;Signal;HPM_P1;HPM_P2
2022/10/05 00:01:21;;;;;;;;;;;16.70;98.50;;;;;;5011859;28;20374;-27
2022/10/05 00:03:47;;;;;;;;;;;16.70;98.50;;;;;;5012143;28;20433;-27
2022/10/05 00:06:13;;;;;;;;;;;16.70;98.50;;;;;;5012143;28;19964;-27
2022/10/05 00:08:38;;;;;;;;;;;16.70;98.50;;;;;;5011891;28;19906;-27
2022/10/05 00:11:07;;;;;;;;;;;16.70;98.50;;;;;;5011940;28;20367;-27
2022/10/05 00:13:33;;;;;;;;;;;16.70;98.50;;;;;;5012222;28;19964;-27
2022/10/05 00:16:11;;;;;;;;;;;16.70;98.80;;;;;;5011973;28;19914;-27
2022/10/05 00:18:37;;;;;;;;;;;16.70;98.40;;;;;;5012043;28;19909;-26
2022/10/05 00:21:12;;;;;;;;;;;16.60;98.40;;;;;;5011960;28;19906;-27
2022/10/05 00:23:39;;;;;;;;;;;16.70;98.40;;;;;;5012032;28;19960;-27
2022/10/05 00:26:15;;;;;;;;;;;16.70;98.40;;;;;;5012044;28;19945;-27
2022/10/05 00:28:40;;;;;;;;;;;16.70;98.40;;;;;;5011691;28;19905;-26
2022/10/05 00:31:13;;;;;;;;;;;16.60;98.40;;;;;;5011971;28;19912;-26
2022/10/05 00:33:39;;;;;;;;;;;16.60;98.40;;;;;;5011880;28;19909;-26
2022/10/05 00:36:05;;;;;;;;;;;16.60;98.40;;;;;;5011906;28;19905;-26
2022/10/05 00:38:30;;;;;;;;;;;16.60;98.40;;;;;;5012158;28;19959;-27
2022/10/05 00:41:03;;;;;;;;;;;16.60;98.40;;;;;;5011473;28;19905;-27
2022/10/05 00:43:37;;;;;;;;;;;16.60;98.40;;;;;;5011975;28;20362;-27
2022/10/05 00:46:13;;;;;;;;;;;16.60;98.40;;;;;;5012042;28;19905;-27
2022/10/05 00:48:54;;;;;;;;;;;16.60;98.30;;;;;;5011716;28;19912;-27
2022/10/05 00:51:19;;;;;;;;;;;16.60;98.30;;;;;;5011565;28;19910;-27
2022/10/05 00:53:57;;;;;;;;;;;16.60;98.30;;;;;;5011879;28;19917;-27
2022/10/05 00:56:37;;;;;;;;;;;16.60;98.30;;;;;;5013720;28;20286;-27
2022/10/05 00:59:17;;;;;;;;;;;16.60;98.30;;;;;;5015360;28;19996;-27
2022/10/05 01:01:49;;;;;;;;;;;16.60;98.30;;;;;;5015257;28;19905;-27
2022/10/05 01:04:27;;;;;;;;;;;16.60;98.30;;;;;;5015457;28;19964;-26
2022/10/05 01:06:55;;;;;;;;;;;16.60;98.30;;;;;;5015245;28;19905;-27
2022/10/05 01:09:24;;;;;;;;;;;16.60;98.30;;;;;;5015021;28;19944;-27
2022/10/05 01:11:49;;;;;;;;;;;16.60;98.30;;;;;;5015646;28;20372;-26
2022/10/05 01:14:18;;;;;;;;;;;16.60;98.30;;;;;;5015691;28;19996;-26
2022/10/05 01:16:43;;;;;;;;;;;16.60;98.30;;;;;;5015538;28;20358;-26
2022/10/05 01:19:27;;;;;;;;;;;16.60;98.20;;;;;;5015639;28;19916;-26
2022/10/05 01:21:59;;;;;;;;;;;16.60;98.20;;;;;;5015597;28;19913;-26
2022/10/05 01:24:48;;;;;;;;;;;16.60;98.20;;;;;;5015602;28;20358;-25
2022/10/05 01:27:32;;;;;;;;;;;16.60;98.30;;;;;;5015534;28;19948;-25
2022/10/05 01:30:11;;;;;;;;;;;16.60;98.20;;;;;;5015288;28;20338;-26
2022/10/05 01:32:36;;;;;;;;;;;16.60;98.30;;;;;;5015442;28;19917;-26
2022/10/05 01:35:02;;;;;;;;;;;16.60;98.20;;;;;;5015299;28;19910;-26
2022/10/05 01:37:46;;;;;;;;;;;16.60;98.20;;;;;;5015494;28;19910;-26
2022/10/05 01:40:11;;;;;;;;;;;16.60;98.20;;;;;;5015251;28;20005;-25
2022/10/05 01:42:43;;;;;;;;;;;16.60;98.20;;;;;;5015241;28;20008;-26
2022/10/05 01:45:25;;;;;;;;;;;16.50;98.20;;;;;;5015267;28;19905;-26
2022/10/05 01:47:56;;;;;;;;;;;16.50;98.20;;;;;;5015250;28;19909;-26
2022/10/05 01:50:22;;;;;;;;;;;16.50;98.20;;;;;;5014979;28;19905;-26
2022/10/05 01:53:07;;;;;;;;;;;16.50;98.20;;;;;;5015029;28;20346;-26
2022/10/05 01:55:36;;;;;;;;;;;16.50;98.50;;;;;;5015087;28;20318;-26
2022/10/05 01:58:05;;;;;;;;;;;16.50;98.20;;;;;;5014657;28;19905;-26
2022/10/05 02:00:44;;;;;;;;;;;16.50;98.20;;;;;;5014628;28;20423;-26
2022/10/05 02:03:12;;;;;;;;;;;16.50;98.20;;;;;;5014966;28;19988;-26
2022/10/05 02:05:43;;;;;;;;;;;16.50;98.10;;;;;;5014877;28;20255;-26
2022/10/05 02:08:11;;;;;;;;;;;16.50;98.10;;;;;;5013799;28;20027;-26
2022/10/05 02:10:39;;;;;;;;;;;16.50;98.10;;;;;;5014146;28;19917;-26
2022/10/05 02:13:14;;;;;;;;;;;16.50;98.10;;;;;;5014038;28;20378;-26
2022/10/05 02:15:53;;;;;;;;;;;16.50;98.10;;;;;;5014285;28;19921;-26
2022/10/05 02:18:20;;;;;;;;;;;16.50;98.10;;;;;;5013999;28;19912;-26
2022/10/05 02:20:46;;;;;;;;;;;16.50;98.00;;;;;;5014329;28;19960;-25
2022/10/05 02:23:16;;;;;;;;;;;16.50;98.00;;;;;;5014345;28;20274;-26
2022/10/05 02:25:45;;;;;;;;;;;16.50;98.00;;;;;;5014495;28;19905;-26
2022/10/05 02:28:10;;;;;;;;;;;16.50;98.00;;;;;;5014676;28;19955;-26
2022/10/05 02:30:41;;;;;;;;;;;16.40;98.00;;;;;;5014346;28;19909;-26
2022/10/05 02:33:11;;;;;;;;;;;16.40;98.00;;;;;;5014443;28;19913;-26
2022/10/05 02:35:36;;;;;;;;;;;16.40;98.00;;;;;;5014303;28;19909;-26
2022/10/05 02:38:13;;;;;;;;;;;16.50;98.00;;;;;;5014193;28;19912;-26
2022/10/05 02:40:41;;;;;;;;;;;16.40;98.00;;;;;;5013962;28;19988;-26
2022/10/05 02:43:19;;;;;;;;;;;16.40;98.10;;;;;;5013943;28;19917;-26
2022/10/05 02:45:48;;;;;;;;;;;16.40;98.00;;;;;;5014125;28;20370;-26
2022/10/05 02:48:13;;;;;;;;;;;16.40;98.00;;;;;;5013854;28;20264;-26
2022/10/05 02:50:42;;;;;;;;;;;16.40;98.00;;;;;;5013735;28;19916;-26
2022/10/05 02:53:13;;;;;;;;;;;16.40;98.00;;;;;;5013873;28;19932;-26
2022/10/05 02:55:49;;;;;;;;;;;16.40;98.00;;;;;;5013901;28;20332;-26
2022/10/05 02:58:20;;;;;;;;;;;16.40;97.90;;;;;;5013444;28;19909;-26
2022/10/05 03:01:01;;;;;;;;;;;16.40;97.90;;;;;;5013235;28;19906;-26
2022/10/05 03:03:40;;;;;;;;;;;16.40;97.90;;;;;;5012001;28;20298;-26
2022/10/05 03:06:13;;;;;;;;;;;16.40;98.00;;;;;;5013448;28;19912;-26
2022/10/05 03:08:38;;;;;;;;;;;16.40;97.90;;;;;;5012884;28;20378;-26
2022/10/05 03:11:04;;;;;;;;;;;16.40;97.90;;;;;;5013149;28;19914;-26
2022/10/05 03:13:37;;;;;;;;;;;16.40;97.90;;;;;;5013724;28;20271;-26
2022/10/05 03:16:35;;;;;;;;;;;16.40;97.90;;;;;;5012251;28;19913;-26
2022/10/05 03:19:00;;;;;;;;;;;16.40;97.90;;;;;;5000925;28;19912;-26
2022/10/05 03:21:44;;;;;;;;;;;16.40;97.80;;;;;;5013133;28;19906;-26
2022/10/05 03:24:21;;;;;;;;;;;16.30;97.80;;;;;;5013172;28;20417;-26
2022/10/05 03:26:53;;;;;;;;;;;16.40;97.80;;;;;;5013339;28;19944;-26
2022/10/05 03:29:30;;;;;;;;;;;16.30;97.80;;;;;;5013201;28;19909;-26
2022/10/05 03:32:04;;;;;;;;;;;16.30;97.80;;;;;;5013276;28;20343;-26
2022/10/05 03:34:29;;;;;;;;;;;16.30;97.80;;;;;;5013232;28;19971;-26
2022/10/05 03:37:00;;;;;;;;;;;16.30;97.80;;;;;;5013030;28;20319;-26
2022/10/05 03:39:35;;;;;;;;;;;16.30;97.70;;;;;;5012817;28;19905;-26
2022/10/05 03:42:14;;;;;;;;;;;16.30;97.70;;;;;;5012867;28;19905;-26
2022/10/05 03:44:49;;;;;;;;;;;16.30;97.70;;;;;;5013471;28;20059;-26
2022/10/05 03:47:24;;;;;;;;;;;16.30;97.70;;;;;;5013177;28;19975;-26
2022/10/05 03:50:08;;;;;;;;;;;16.30;97.70;;;;;;5012910;28;19935;-26
2022/10/05 03:52:33;;;;;;;;;;;16.30;97.70;;;;;;5013265;28;19956;-26
2022/10/05 03:55:08;;;;;;;;;;;16.20;97.60;;;;;;5012896;28;19960;-26
2022/10/05 03:57:35;;;;;;;;;;;16.30;97.70;;;;;;5012700;28;19952;-26
2022/10/05 04:00:04;;;;;;;;;;;16.30;97.60;;;;;;5012563;28;19906;-26
2022/10/05 04:02:32;;;;;;;;;;;16.30;97.60;;;;;;5012721;28;19913;-26
2022/10/05 04:05:02;;;;;;;;;;;16.20;97.50;;;;;;5012553;28;20051;-26
2022/10/05 04:07:46;;;;;;;;;;;16.30;97.60;;;;;;5012780;28;19909;-26
2022/10/05 04:10:23;;;;;;;;;;;16.20;97.50;;;;;;5012344;28;19920;-26
2022/10/05 04:12:53;;;;;;;;;;;16.20;97.50;;;;;;5012837;28;20386;-26
2022/10/05 04:15:26;;;;;;;;;;;16.20;97.50;;;;;;5012838;28;19911;-26
2022/10/05 04:17:56;;;;;;;;;;;16.20;97.50;;;;;;5012644;28;19916;-26
2022/10/05 04:20:32;;;;;;;;;;;16.20;97.50;;;;;;5012433;28;20363;-26
2022/10/05 04:22:57;;;;;;;;;;;16.20;97.50;;;;;;5012497;28;19909;-26
2022/10/05 04:25:35;;;;;;;;;;;16.20;97.50;;;;;;5011916;28;19940;-26
2022/10/05 04:28:13;;;;;;;;;;;16.20;97.50;;;;;;5011810;28;19905;-26
2022/10/05 04:30:41;;;;;;;;;;;16.20;97.40;;;;;;5012684;28;20350;-25
2022/10/05 04:33:11;;;;;;;;;;;16.20;97.40;;;;;;5016666;28;19979;-26
2022/10/05 04:35:55;;;;;;;;;;;16.20;97.40;;;;;;5016507;28;20364;-26
2022/10/05 04:38:27;;;;;;;;;;;16.20;97.40;;;;;;5016205;28;19912;-26
2022/10/05 04:41:11;;;;;;;;;;;16.20;97.40;;;;;;5016324;28;20016;-26
2022/10/05 04:43:55;;;;;;;;;;;16.20;97.40;;;;;;5016342;28;20389;-26
2022/10/05 04:46:35;;;;;;;;;;;16.20;97.40;;;;;;5016314;28;19952;-26
2022/10/05 04:49:12;;;;;;;;;;;16.10;97.40;;;;;;5016244;28;19909;-26
2022/10/05 04:52:01;;;;;;;;;;;16.20;97.40;;;;;;5016323;28;19956;-26
2022/10/05 04:54:36;;;;;;;;;;;16.20;97.40;;;;;;5005390;28;19905;-26
2022/10/05 04:57:06;;;;;;;;;;;16.20;97.40;;;;;;5016195;28;19905;-26
2022/10/05 04:59:46;;;;;;;;;;;16.10;97.30;;;;;;5015993;28;19967;-26
2022/10/05 05:02:20;;;;;;;;;;;16.10;97.30;;;;;;5016476;28;20003;-25
2022/10/05 05:04:49;;;;;;;;;;;16.10;97.30;;;;;;5016282;28;20359;-26
2022/10/05 05:07:32;;;;;;;;;;;16.20;97.30;;;;;;5016112;28;19913;-26
2022/10/05 05:09:57;;;;;;;;;;;16.10;97.30;;;;;;5015783;28;19920;-26
2022/10/05 05:12:23;;;;;;;;;;;16.20;97.30;;;;;;5016303;28;19905;-26
2022/10/05 05:15:09;;;;;;;;;;;16.10;97.30;;;;;;5016223;28;19913;-26
2022/10/05 05:17:42;;;;;;;;;;;16.10;97.30;;;;;;5015536;28;19916;-26
2022/10/05 05:20:26;;;;;;;;;;;16.10;97.30;;;;;;5015598;28;19905;-26
2022/10/05 05:22:58;;;;;;;;;;;16.10;97.30;;;;;;5015647;28;19951;-26
2022/10/05 05:25:33;;;;;;;;;;;16.10;97.30;;;;;;5015707;28;19960;-26
2022/10/05 05:28:07;;;;;;;;;;;16.10;97.20;;;;;;5015606;28;20351;-26
2022/10/05 05:30:39;;;;;;;;;;;16.10;97.20;;;;;;5015332;28;20256;-26
2022/10/05 05:33:07;;;;;;;;;;;16.10;97.20;;;;;;5015575;28;19905;-26
2022/10/05 05:35:33;;;;;;;;;;;16.10;97.20;;;;;;5015525;28;19905;-26
2022/10/05 05:38:16;;;;;;;;;;;16.10;97.20;;;;;;5015271;28;19960;-26
2022/10/05 05:40:58;;;;;;;;;;;16.10;97.20;;;;;;5014801;28;20367;-26
2022/10/05 05:43:33;;;;;;;;;;;16.10;97.20;;;;;;5014678;28;19909;-26
2022/10/05 05:45:59;;;;;;;;;;;16.10;97.20;;;;;;5015251;28;19960;-26
2022/10/05 05:48:38;;;;;;;;;;;16.10;97.20;;;;;;5015139;28;19959;-26
2022/10/05 05:51:10;;;;;;;;;;;16.00;97.20;;;;;;5015302;28;19905;-26
2022/10/05 05:53:40;;;;;;;;;;;16.00;97.20;;;;;;5015142;28;20453;-26
2022/10/05 05:56:09;;;;;;;;;;;16.00;97.20;;;;;;5015130;28;19905;-26
2022/10/05 05:58:39;;;;;;;;;;;16.00;97.20;;;;;;5014846;28;19905;-26
2022/10/05 06:01:25;;;;;;;;;;;16.00;97.20;;;;;;5014772;28;19959;-26
2022/10/05 06:03:53;;;;;;;;;;;16.00;97.20;;;;;;5003093;28;19910;-26
2022/10/05 06:06:20;;;;;;;;;;;16.00;97.20;;;;;;5014772;28;19959;-26
2022/10/05 06:08:56;;;;;;;;;;;16.00;97.20;;;;;;5014168;28;19905;-26
2022/10/05 06:11:30;;;;;;;;;;;15.90;97.20;;;;;;5013891;28;19968;-26
2022/10/05 06:14:02;;;;;;;;;;;16.00;97.20;;;;;;5014152;28;19941;-26
2022/10/05 06:16:48;;;;;;;;;;;15.90;97.10;;;;;;5014472;28;20433;-25
2022/10/05 06:19:18;;;;;;;;;;;16.00;97.20;;;;;;5013865;28;19912;-26
2022/10/05 06:21:46;;;;;;;;;;;16.00;97.20;;;;;;5014261;28;20346;-25
2022/10/05 06:24:21;;;;;;;;;;;16.00;97.20;;;;;;5014528;28;20366;-25
2022/10/05 06:27:06;;;;;;;;;;;16.00;97.10;;;;;;5014640;28;19963;-26
2022/10/05 06:29:45;;;;;;;;;;;16.00;97.10;;;;;;5014178;28;19906;-25
2022/10/05 06:32:39;;;;;;;;;;;16.00;97.10;;;;;;5014695;28;20313;-26
2022/10/05 06:35:09;;;;;;;;;;;16.00;97.10;;;;;;5008831;28;19905;-25
2022/10/05 06:37:45;;;;;;;;;;;16.00;97.10;;;;;;5014390;28;20374;-26
2022/10/05 06:40:14;;;;;;;;;;;16.10;97.10;;;;;;5014330;28;20287;-25
2022/10/05 06:42:42;;;;;;;;;;;16.00;97.10;;;;;;5014465;28;19913;-25
2022/10/05 06:45:33;;;;;;;;;;;16.10;97.10;;;;;;5014328;28;19905;-26
2022/10/05 06:48:05;;;;;;;;;;;16.10;97.10;;;;;;5014735;28;20252;-25
2022/10/05 06:50:30;;;;;;;;;;;16.10;97.10;;;;;;5014090;28;19940;-25
2022/10/05 06:53:14;;;;;;;;;;;16.10;97.10;;;;;;5014139;28;20448;-26
2022/10/05 06:56:02;;;;;;;;;;;16.10;97.10;;;;;;5014570;28;19959;-26
2022/10/05 06:58:33;;;;;;;;;;;16.10;97.10;;;;;;5013735;28;19905;-26
2022/10/05 07:01:09;;;;;;;;;;;16.10;95.70;;;;;;5013432;28;20003;-25
2022/10/05 07:03:55;;;;;;;;;;;15.70;95.40;;;;;;5013822;28;19913;-25
2022/10/05 07:06:32;;;;;;;;;;;15.40;96.00;;;;;;5013851;28;20008;-25
2022/10/05 07:09:04;;;;;;;;;;;15.40;96.40;;;;;;5013779;28;20286;-25
2022/10/05 07:11:37;;;;;;;;;;;15.60;96.50;;;;;;5037152;22;19925;-25
2022/10/05 07:14:14;;;;;;;;;;;15.70;96.60;;;;;;5013044;28;20024;-25
2022/10/05 07:16:51;;;;;;;;;;;15.80;96.50;;;;;;5013093;28;20368;-26
2022/10/05 07:19:22;;;;;;;;;;;15.90;96.40;;;;;;5012761;28;19936;-26
2022/10/05 07:22:03;;;;;;;;;;;16.00;96.40;;;;;;5012782;28;19912;-25
2022/10/05 07:24:56;;;;;;;;;;;16.10;96.30;;;;;;5013021;28;19947;-25
2022/10/05 07:27:24;;;;;;;;;;;16.10;96.30;;;;;;5004641;28;19909;-25
2022/10/05 07:29:55;;;;;;;;;;;16.10;96.40;;;;;;5012695;28;19912;-26
2022/10/05 07:32:23;;;;;;;;;;;16.20;96.40;;;;;;5012717;28;19905;-25
2022/10/05 07:37:53;;;;;;;;;;;16.20;96.30;;;;;;5012569;28;19906;-25
2022/10/05 07:37:59;;;;;;;;;;;16.20;96.40;;;;;;5012447;28;19909;-26
2022/10/05 07:40:36;;;;;;;;;;;16.30;96.40;;;;;;5012376;28;19906;-25
2022/10/05 07:43:20;;;;;;;;;;;16.30;96.30;;;;;;5012721;28;19909;-25
2022/10/05 07:46:04;;;;;;;;;;;16.30;96.30;;;;;;5012547;28;20291;-26
2022/10/05 07:48:48;;;;;;;;;;;16.40;96.30;;;;;;5012309;28;19912;-26
2022/10/05 07:51:35;;;;;;;;;;;16.40;96.30;;;;;;5012860;28;19937;-25
2022/10/05 07:54:08;;;;;;;;;;;16.40;96.30;;;;;;5012516;28;20397;-26
2022/10/05 07:56:39;;;;;;;;;;;16.50;96.30;;;;;;5012540;28;20363;-25
2022/10/05 07:59:09;;;;;;;;;;;16.40;96.30;;;;;;5012487;28;19999;-26
2022/10/05 08:01:37;;;;;;;;;;;16.50;96.40;;;;;;5012277;28;19912;-26
2022/10/05 08:04:12;;;;;;;;;;;16.50;96.40;;;;;;5012155;28;20358;-25
2022/10/05 08:06:41;;;;;;;;;;;16.50;96.30;;;;;;5012388;28;19906;-26
2022/10/05 08:09:16;;;;;;;;;;;16.50;96.30;;;;;;5012089;28;19910;-26
2022/10/05 08:11:56;;;;;;;;;;;16.60;96.30;;;;;;5012130;28;20394;-25
2022/10/05 08:14:34;;;;;;;;;;;16.60;96.30;;;;;;5012190;28;20380;-25
2022/10/05 08:17:03;;;;;;;;;;;16.60;96.30;;;;;;5012172;28;20382;-26
2022/10/05 08:19:35;;;;;;;;;;;16.60;96.30;;;;;;5011983;28;19960;-25
2022/10/05 08:22:04;;;;;;;;;;;16.70;96.40;;;;;;5012101;28;19921;-25
2022/10/05 08:24:37;;;;;;;;;;;16.70;96.40;;;;;;5012073;28;20321;-27
2022/10/05 08:27:22;;;;;;;;;;;16.70;96.40;;;;;;5012086;28;19917;-26
2022/10/05 08:30:00;;;;;;;;;;;16.70;96.40;;;;;;5011850;28;19931;-25
2022/10/05 08:32:45;;;;;;;;;;;16.70;96.40;;;;;;5012036;28;19917;-25
2022/10/05 08:35:17;;;;;;;;;;;16.70;96.40;;;;;;5011684;28;19905;-25
2022/10/05 08:37:43;;;;;;;;;;;16.70;96.40;;;;;;5011808;28;19992;-26
2022/10/05 08:40:17;;;;;;;;;;;16.80;96.50;;;;;;5011727;28;20422;-25
2022/10/05 08:42:49;;;;;;;;;;;16.80;96.50;;;;;;5011935;28;19920;-26
2022/10/05 08:45:26;;;;;;;;;;;16.80;96.50;;;;;;5012097;28;19912;-25
2022/10/05 08:48:10;;;;;;;;;;;16.80;96.50;;;;;;5011947;28;20287;-25
2022/10/05 08:50:44;;;;;;;;;;;16.90;96.50;;;;;;5011897;28;20377;-26
2022/10/05 08:53:27;;;;;;;;;;;16.90;97.00;;;;;;5012643;28;20256;-25
2022/10/05 08:55:59;;;;;;;;;;;16.90;99.00;;;;;;5012205;28;19959;-25
2022/10/05 08:58:42;;;;;;;;;;;17.00;99.60;;;;;;5012223;28;19909;-25
2022/10/05 09:01:08;;;;;;;;;;;17.00;99.70;;;;;;5012329;28;20005;-25
2022/10/05 09:03:52;;;;;;;;;;;17.10;99.60;;;;;;5012219;28;20007;-25
2022/10/05 09:06:30;;;;;;;;;;;17.20;98.90;;;;;;5012059;28;19910;-25
2022/10/05 09:08:59;;;;;;;;;;;17.30;98.60;;;;;;5011743;28;19906;-26
2022/10/05 09:11:33;;;;;;;;;;;17.40;98.40;;;;;;5011751;28;19996;-25
2022/10/05 09:14:18;;;;;;;;;;;17.50;98.30;;;;;;5012055;28;19905;-25
2022/10/05 09:16:48;;;;;;;;;;;17.50;98.10;;;;;;5011336;28;19920;-26
2022/10/05 09:19:32;;;;;;;;;;;17.60;98.00;;;;;;5015356;28;19914;-26
2022/10/05 09:21:57;;;;;;;;;;;17.60;97.90;;;;;;5015249;28;19906;-26
2022/10/05 09:24:27;;;;;;;;;;;17.60;97.80;;;;;;5014971;28;19917;-26
2022/10/05 09:27:07;;;;;;;;;;;17.70;97.80;;;;;;5015065;28;19940;-26
2022/10/05 09:29:52;;;;;;;;;;;17.70;97.70;;;;;;5014798;28;20111;-26
2022/10/05 09:32:33;;;;;;;;;;;17.70;97.70;;;;;;5014872;28;19912;-25
2022/10/05 09:35:25;;;;;;;;;;;17.80;97.60;;;;;;5014834;28;19952;-25
2022/10/05 09:38:09;;;;;;;;;;;17.80;98.50;;;;;;5006183;28;19996;-26
2022/10/05 09:40:53;;;;;;;;;;;17.90;98.70;;;;;;5013090;28;20374;-26
2022/10/05 09:43:25;;;;;;;;;;;17.90;98.40;;;;;;5013207;28;19909;-26
2022/10/05 09:46:13;;;;;;;;;;;17.90;98.20;;;;;;5013285;28;19928;-25
2022/10/05 09:48:38;;;;;;;;;;;18.00;98.10;;;;;;5014370;28;20403;-26
2022/10/05 09:51:22;;;;;;;;;;;18.00;98.00;;;;;;5014421;28;20004;-26
2022/10/05 09:53:51;;;;;;;;;;;18.00;98.00;;;;;;5014578;28;19912;-26
2022/10/05 09:56:25;;;;;;;;;;;18.10;98.00;;;;;;5014495;28;19909;-25
2022/10/05 09:58:53;;;;;;;;;;;18.10;97.90;;;;;;5014129;28;20326;-26
2022/10/05 10:01:29;;;;;;;;;;;18.10;98.20;;;;;;5014212;28;20302;-25
2022/10/05 10:04:06;;;;;;;;;;;18.10;97.80;;;;;;5014339;28;19917;-25
2022/10/05 10:06:41;;;;;;;;;;;18.20;97.80;;;;;;5014374;28;19932;-26
2022/10/05 10:09:39;;;;;;;;;;;18.20;97.70;;;;;;5014498;28;19921;-27
2022/10/05 10:12:10;;;;;;;;;;;18.20;97.70;;;;;;5001961;28;20389;-26
2022/10/05 10:14:36;;;;;;;;;;;18.20;97.70;;;;;;5012892;28;19959;-26
2022/10/05 10:17:07;;;;;;;;;;;18.20;97.70;;;;;;5014337;28;19988;-26
2022/10/05 10:19:43;;;;;;;;;;;18.20;97.70;;;;;;5013870;28;20432;-25
2022/10/05 10:22:48;;;;;;;;;;;18.20;97.70;;;;;;5014048;28;20044;-26
2022/10/05 10:25:18;;;;;;;;;;;18.30;97.70;;;;;;4991836;28;19921;-26
2022/10/05 10:27:43;;;;;;;;;;;18.30;97.60;;;;;;5001651;28;19909;-25
2022/10/05 10:30:17;;;;;;;;;;;18.30;97.60;;;;;;5012608;28;19913;-26
2022/10/05 10:33:02;;;;;;;;;;;18.30;97.60;;;;;;5012379;28;19925;-25
2022/10/05 10:35:30;;;;;;;;;;;18.30;97.60;;;;;;5013648;28;19915;-26
2022/10/05 10:38:14;;;;;;;;;;;18.40;97.60;;;;;;5013641;28;20462;-26
2022/10/05 10:40:58;;;;;;;;;;;18.40;97.60;;;;;;5013210;28;20007;-25
2022/10/05 10:43:25;;;;;;;;;;;18.40;97.60;;;;;;5012077;28;19953;-26
2022/10/05 10:45:59;;;;;;;;;;;18.40;97.60;;;;;;5013525;28;19906;-26
2022/10/05 10:48:28;;;;;;;;;;;18.40;97.60;;;;;;5013326;28;19928;-26
2022/10/05 10:51:02;;;;;;;;;;;18.50;98.00;;;;;;5013190;28;19967;-26
2022/10/05 10:53:32;;;;;;;;;;;18.50;97.60;;;;;;5012081;28;19906;-26
2022/10/05 10:56:17;;;;;;;;;;;18.50;97.60;;;;;;5013426;28;20345;-26
2022/10/05 10:58:48;;;;;;;;;;;18.50;97.60;;;;;;5013156;28;19928;-26
2022/10/05 11:01:32;;;;;;;;;;;18.50;97.60;;;;;;5013154;28;19916;-26
2022/10/05 11:04:00;;;;;;;;;;;18.60;97.70;;;;;;5013122;28;19914;-26
2022/10/05 11:06:44;;;;;;;;;;;18.50;97.70;;;;;;5013110;28;19906;-25
2022/10/05 11:09:10;;;;;;;;;;;18.60;97.70;;;;;;5012904;28;20043;-25
2022/10/05 11:11:35;;;;;;;;;;;18.50;97.70;;;;;;5012753;28;19953;-25
2022/10/05 11:14:01;;;;;;;;;;;18.60;99.00;;;;;;5012727;28;20282;-26
2022/10/05 11:16:46;;;;;;;;;;;18.80;99.90;;;;;;5011914;28;19912;-25
2022/10/05 11:19:31;;;;;;;;;;;19.10;99.90;;;;;;5012664;28;19979;-25
2022/10/05 11:22:21;;;;;;;;;;;19.30;99.90;;;;;;5012803;28;20386;-25
2022/10/05 11:25:19;;;;;;;;;;;19.30;99.80;;;;;;5012805;28;20321;-26
2022/10/05 11:28:01;;;;;;;;;;;19.30;99.60;;;;;;5000566;28;19917;-26
2022/10/05 11:30:45;;;;;;;;;;;19.20;99.50;;;;;;5012266;28;20008;-26
2022/10/05 11:33:20;;;;;;;;;;;19.10;99.40;;;;;;5011311;28;19913;-25
2022/10/05 11:35:57;;;;;;;;;;;19.00;99.40;;;;;;5012771;28;19955;-26
2022/10/05 11:38:25;;;;;;;;;;;19.00;99.50;;;;;;5012408;28;19920;-26
2022/10/05 11:41:01;;;;;;;;;;;18.90;99.40;;;;;;5011956;28;19916;-26
2022/10/05 11:43:38;;;;;;;;;;;18.90;99.40;;;;;;5011023;28;20420;-26
2022/10/05 11:46:11;;;;;;;;;;;18.90;99.30;;;;;;5012491;28;19906;-25
2022/10/05 11:48:52;;;;;;;;;;;18.90;99.40;;;;;;5010940;28;19996;-26
2022/10/05 11:51:25;;;;;;;;;;;18.80;99.40;;;;;;5012279;28;19905;-25
2022/10/05 11:54:11;;;;;;;;;;;18.80;99.40;;;;;;5012577;28;19960;-25
2022/10/05 11:56:42;;;;;;;;;;;18.80;99.30;;;;;;5011156;28;20371;-25
2022/10/05 11:59:33;;;;;;;;;;;18.80;99.30;;;;;;5012507;28;19973;-26
2022/10/05 12:02:17;;;;;;;;;;;18.80;99.30;;;;;;5012438;28;19906;-25
2022/10/05 12:04:48;;;;;;;;;;;18.90;99.30;;;;;;5012299;28;20333;-26
2022/10/05 12:07:20;;;;;;;;;;;18.80;99.30;;;;;;5012143;28;19905;-26
2022/10/05 12:10:13;;;;;;;;;;;18.80;99.30;;;;;;5012142;28;19907;-27
2022/10/05 12:12:36;;;;;;;;;;;18.90;99.30;;;;;;5011985;28;20294;-25
2022/10/05 12:15:13;;;;;;;;;;;18.80;99.20;;;;;;5012219;28;19905;-26
2022/10/05 12:17:55;;;;;;;;;;;18.80;99.20;;;;;;5012056;28;19906;-26
2022/10/05 12:20:27;;;;;;;;;;;18.90;99.20;;;;;;5011818;28;19977;-25
2022/10/05 12:23:00;;;;;;;;;;;18.80;99.10;;;;;;5011869;28;19917;-26
2022/10/05 12:25:30;;;;;;;;;;;18.90;99.10;;;;;;5011991;28;20271;-26
2022/10/05 12:27:59;;;;;;;;;;;18.80;99.10;;;;;;5010539;28;19906;-25
2022/10/05 12:30:43;;;;;;;;;;;18.90;99.10;;;;;;5011584;28;19989;-26
2022/10/05 12:33:17;;;;;;;;;;;18.90;99.10;;;;;;5011742;28;20059;-25
2022/10/05 12:35:45;;;;;;;;;;;18.90;99.00;;;;;;5010678;28;19932;-25
2022/10/05 12:38:17;;;;;;;;;;;18.90;99.00;;;;;;5011793;28;19999;-26
2022/10/05 12:40:45;;;;;;;;;;;18.90;99.00;;;;;;5011572;28;19912;-25
2022/10/05 12:43:11;;;;;;;;;;;18.90;99.00;;;;;;5011743;28;19913;-25
2022/10/05 12:45:36;;;;;;;;;;;18.90;99.00;;;;;;5010423;28;20014;-26
2022/10/05 12:48:20;;;;;;;;;;;18.80;99.00;;;;;;5011800;28;19912;-25
2022/10/05 12:50:52;;;;;;;;;;;18.80;99.00;;;;;;5011531;28;19913;-25
2022/10/05 12:53:36;;;;;;;;;;;18.90;99.00;;;;;;5015007;28;19905;-25
2022/10/05 12:56:09;;;;;;;;;;;18.90;99.00;;;;;;5015429;28;19905;-25
2022/10/05 12:58:50;;;;;;;;;;;18.90;99.00;;;;;;5015412;28;19910;-25
2022/10/05 13:01:29;;;;;;;;;;;18.90;99.00;;;;;;5015324;28;20351;-26
2022/10/05 13:03:58;;;;;;;;;;;18.90;98.90;;;;;;5015472;28;20294;-25
2022/10/05 13:06:42;;;;;;;;;;;18.90;98.90;;;;;;5014178;28;19909;-25
2022/10/05 13:09:09;;;;;;;;;;;18.90;98.90;;;;;;5015148;28;19936;-26
2022/10/05 13:11:56;;;;;;;;;;;18.90;98.90;;;;;;5015515;28;20000;-26
2022/10/05 13:14:22;;;;;;;;;;;18.90;98.90;;;;;;5015322;28;19922;-26
2022/10/05 13:16:58;;;;;;;;;;;18.90;98.90;;;;;;5015282;28;20283;-27
2022/10/05 13:19:23;;;;;;;;;;;18.90;99.00;;;;;;5015036;28;19910;-27
2022/10/05 13:21:52;;;;;;;;;;;18.90;99.00;;;;;;5014940;28;19912;-25
2022/10/05 13:24:22;;;;;;;;;;;18.80;98.90;;;;;;5015078;28;19909;-25
2022/10/05 13:26:54;;;;;;;;;;;18.80;99.00;;;;;;5014982;28;19906;-25
2022/10/05 13:29:22;;;;;;;;;;;18.80;99.00;;;;;;5014701;28;19905;-26
2022/10/05 13:31:53;;;;;;;;;;;18.80;99.00;;;;;;5014963;28;20375;-25
2022/10/05 13:34:18;;;;;;;;;;;18.80;99.00;;;;;;5014898;28;20401;-26
2022/10/05 13:36:43;;;;;;;;;;;18.80;99.00;;;;;;5014864;28;19905;-26
2022/10/05 13:39:16;;;;;;;;;;;18.80;99.00;;;;;;5014685;28;19917;-25
2022/10/05 13:41:42;;;;;;;;;;;18.80;99.00;;;;;;5014624;28;20268;-26
2022/10/05 13:44:20;;;;;;;;;;;18.80;99.00;;;;;;5014604;28;19913;-26
2022/10/05 13:46:47;;;;;;;;;;;18.80;99.00;;;;;;5014574;28;19911;-25
2022/10/05 13:49:13;;;;;;;;;;;18.80;99.00;;;;;;5014489;28;19921;-26
2022/10/05 13:51:44;;;;;;;;;;;18.80;99.00;;;;;;5015006;28;19906;-26
2022/10/05 13:54:16;;;;;;;;;;;18.80;99.00;;;;;;5014668;28;19913;-26
2022/10/05 13:56:44;;;;;;;;;;;18.80;99.00;;;;;;5014460;28;19944;-27
2022/10/05 13:59:16;;;;;;;;;;;18.70;99.00;;;;;;5012942;28;19912;-26
2022/10/05 14:01:57;;;;;;;;;;;18.80;99.00;;;;;;5012943;28;19906;-26
2022/10/05 14:04:26;;;;;;;;;;;18.80;99.00;;;;;;5014129;28;19955;-26
2022/10/05 14:06:51;;;;;;;;;;;18.70;98.90;;;;;;5012910;28;19913;-25
2022/10/05 14:09:18;;;;;;;;;;;18.70;99.00;;;;;;5014259;28;20258;-26
2022/10/05 14:11:49;;;;;;;;;;;18.80;99.00;;;;;;5014003;28;20327;-26
2022/10/05 14:14:25;;;;;;;;;;;18.80;98.90;;;;;;5014094;28;20259;-26
2022/10/05 14:16:54;;;;;;;;;;;18.80;98.90;;;;;;5014149;28;19905;-26
2022/10/05 14:19:25;;;;;;;;;;;18.80;98.90;;;;;;5013808;28;19909;-26
2022/10/05 14:22:01;;;;;;;;;;;18.80;98.90;;;;;;5014076;28;20359;-26
2022/10/05 14:24:28;;;;;;;;;;;18.80;98.90;;;;;;5013899;28;19913;-27
2022/10/05 14:26:55;;;;;;;;;;;18.80;98.90;;;;;;5014077;28;19909;-26
2022/10/05 14:29:25;;;;;;;;;;;18.80;98.90;;;;;;5013865;28;19909;-27
2022/10/05 14:31:52;;;;;;;;;;;18.80;98.80;;;;;;5013644;28;19913;-26
2022/10/05 14:34:24;;;;;;;;;;;18.80;98.80;;;;;;5013771;28;19905;-26
2022/10/05 14:36:54;;;;;;;;;;;18.80;98.90;;;;;;5012633;28;19905;-26
2022/10/05 14:39:23;;;;;;;;;;;18.80;98.90;;;;;;5013478;28;19912;-25
2022/10/05 14:41:49;;;;;;;;;;;18.80;98.90;;;;;;5013426;28;20351;-26
2022/10/05 14:44:24;;;;;;;;;;;18.80;98.90;;;;;;5013437;28;19948;-26
2022/10/05 14:47:01;;;;;;;;;;;18.70;98.80;;;;;;5013900;28;20293;-27
2022/10/05 14:49:34;;;;;;;;;;;18.80;98.80;;;;;;5013509;28;20282;-26
2022/10/05 14:52:20;;;;;;;;;;;18.80;98.80;;;;;;5012010;28;19911;-27
2022/10/05 14:54:53;;;;;;;;;;;18.80;98.80;;;;;;5013318;28;19912;-26
2022/10/05 14:57:29;;;;;;;;;;;18.80;98.90;;;;;;5013309;28;19905;-25